Terminal Aerodrome Forecast
Issued by NWS

Home | Current Version | Previous Version | Text Only | Print | Product List | Glossary On
Versions: 1 2 3 4 5 6 7 8 9 10 11 12 13
000
FTUS41 KPBZ 262324
TAFAGC
TAF
KAGC 262324Z 2700/2724 26010KT P6SM BKN100
     FM270500 22005KT P6SM VCSH BKN130
     FM270800 22006KT P6SM BKN100
     FM271100 24006KT P6SM SCT070=

USA.gov is the U.S. government's official web portal to all federal, state and local government web resources and services.